createdAt,value
2018-12-18T00:01:34.530Z,16.00
2018-12-18T00:04:02.899Z,16.00
2018-12-18T00:06:30.606Z,16.10
2018-12-18T00:08:57.820Z,16.00
2018-12-18T00:11:26.004Z,16.10
2018-12-18T00:13:53.238Z,16.10
2018-12-18T00:16:20.595Z,16.10
2018-12-18T00:18:47.811Z,16.00
2018-12-18T00:21:15.025Z,16.00
2018-12-18T00:23:43.063Z,16.00
2018-12-18T00:26:10.316Z,16.00
2018-12-18T00:28:37.529Z,16.00
2018-12-18T00:31:04.744Z,16.00
2018-12-18T00:33:32.070Z,16.00
2018-12-18T00:35:59.276Z,16.00
2018-12-18T00:38:26.514Z,16.10
2018-12-18T00:40:54.520Z,16.10
2018-12-18T00:43:22.645Z,16.10
2018-12-18T00:45:49.986Z,16.00
2018-12-18T00:48:17.295Z,16.10
2018-12-18T00:50:44.513Z,16.10
2018-12-18T00:53:11.723Z,16.10
2018-12-18T00:55:39.941Z,16.10
2018-12-18T00:58:07.947Z,16.10
2018-12-18T01:00:36.230Z,16.00
2018-12-18T01:03:03.449Z,16.00
2018-12-18T01:05:32.576Z,16.00
2018-12-18T01:07:59.825Z,16.00
2018-12-18T01:10:27.044Z,16.00
2018-12-18T01:12:55.045Z,16.00
2018-12-18T01:15:23.094Z,16.00
2018-12-18T01:17:51.103Z,16.00
2018-12-18T01:20:19.270Z,16.00
2018-12-18T01:22:46.487Z,16.10
2018-12-18T01:25:13.702Z,16.10
2018-12-18T01:27:40.920Z,16.10
2018-12-18T01:30:08.937Z,16.10
2018-12-18T01:32:37.097Z,16.10
2018-12-18T01:35:04.567Z,16.10
2018-12-18T01:37:33.189Z,16.10
2018-12-18T01:40:01.767Z,16.10
2018-12-18T01:42:29.917Z,16.10
2018-12-18T01:44:58.118Z,16.10
2018-12-18T01:47:25.342Z,16.10
2018-12-18T01:49:53.486Z,16.10
2018-12-18T01:52:20.700Z,16.10
2018-12-18T01:54:48.726Z,16.10
2018-12-18T01:57:16.899Z,16.10
2018-12-18T01:59:45.028Z,16.10
2018-12-18T02:02:12.278Z,16.10
2018-12-18T02:04:39.487Z,16.10
2018-12-18T02:07:07.506Z,16.10
2018-12-18T02:09:34.723Z,16.10
2018-12-18T02:12:03.661Z,16.10
2018-12-18T02:14:32.943Z,16.10
2018-12-18T02:17:01.096Z,16.10
2018-12-18T02:19:29.122Z,16.10
2018-12-18T02:21:57.247Z,16.10
2018-12-18T02:24:25.439Z,16.10
2018-12-18T02:26:52.662Z,16.10
2018-12-18T02:29:20.871Z,16.10
2018-12-18T02:31:48.087Z,16.10
2018-12-18T02:34:16.210Z,16.10
2018-12-18T02:36:43.438Z,16.10
2018-12-18T02:39:11.573Z,16.10
2018-12-18T02:41:38.789Z,16.10
2018-12-18T02:44:06.775Z,16.10
2018-12-18T02:46:34.912Z,16.10
2018-12-18T02:49:03.056Z,16.10
2018-12-18T02:51:30.328Z,16.10
2018-12-18T02:53:58.618Z,16.10
2018-12-18T02:56:26.759Z,16.10
2018-12-18T02:58:54.905Z,16.10
2018-12-18T03:01:22.109Z,16.10
2018-12-18T03:03:49.321Z,16.10
2018-12-18T03:06:16.614Z,16.10
2018-12-18T03:08:44.615Z,16.10
2018-12-18T03:11:13.816Z,16.10
2018-12-18T03:13:41.101Z,16.10
2018-12-18T03:16:08.320Z,16.10
2018-12-18T03:18:35.537Z,16.10
2018-12-18T03:21:02.747Z,16.10
2018-12-18T03:23:29.969Z,16.10
2018-12-18T03:25:57.198Z,16.10
2018-12-18T03:28:24.407Z,16.00
2018-12-18T03:30:51.625Z,16.10
2018-12-18T03:33:19.706Z,16.10
2018-12-18T03:35:46.917Z,16.10
2018-12-18T03:38:14.131Z,16.10
2018-12-18T03:40:41.336Z,16.10
2018-12-18T03:43:08.555Z,16.10
2018-12-18T03:45:36.588Z,16.10
2018-12-18T03:48:03.798Z,16.10
2018-12-18T03:50:32.010Z,16.10
2018-12-18T03:53:00.061Z,16.10
2018-12-18T03:55:28.205Z,16.10
2018-12-18T03:57:55.437Z,16.10
2018-12-18T04:00:23.981Z,16.10
2018-12-18T04:02:51.207Z,16.10
2018-12-18T04:05:18.431Z,16.20
2018-12-18T04:07:45.645Z,16.10
2018-12-18T04:10:12.863Z,16.10
2018-12-18T04:12:40.981Z,16.10
2018-12-18T04:15:08.197Z,16.20
2018-12-18T04:17:36.356Z,16.20
2018-12-18T04:20:04.645Z,16.20
2018-12-18T04:22:32.782Z,16.10
2018-12-18T04:25:00.925Z,16.10
2018-12-18T04:27:28.135Z,16.10
2018-12-18T04:29:56.206Z,16.10
2018-12-18T04:32:24.722Z,16.10
2018-12-18T04:34:51.973Z,16.20
2018-12-18T04:37:20.097Z,16.10
2018-12-18T04:39:48.281Z,16.10
2018-12-18T04:42:16.319Z,16.10
2018-12-18T04:44:44.454Z,16.10
2018-12-18T04:47:12.616Z,16.20
2018-12-18T04:49:40.758Z,16.20
2018-12-18T04:52:08.902Z,16.20
2018-12-18T04:54:37.077Z,16.20
2018-12-18T04:57:04.300Z,16.20
2018-12-18T04:59:32.472Z,16.20
2018-12-18T05:01:59.682Z,16.20
2018-12-18T05:04:27.694Z,16.20
2018-12-18T05:06:55.880Z,16.20
2018-12-18T05:09:23.083Z,16.20
2018-12-18T05:11:51.128Z,16.20
2018-12-18T05:14:18.327Z,16.20
2018-12-18T05:16:45.531Z,16.20
2018-12-18T05:19:12.717Z,16.20
2018-12-18T05:21:41.007Z,16.20
2018-12-18T05:24:08.225Z,16.20
2018-12-18T05:26:35.438Z,16.20
2018-12-18T05:29:03.458Z,16.20
2018-12-18T05:31:31.486Z,16.20
2018-12-18T05:33:58.707Z,16.20
2018-12-18T05:36:26.086Z,16.20
2018-12-18T05:38:54.809Z,16.20
2018-12-18T05:41:22.076Z,16.30
2018-12-18T05:43:49.295Z,16.20
2018-12-18T05:46:17.373Z,16.30
2018-12-18T05:48:44.597Z,16.30
2018-12-18T05:51:11.859Z,16.30
2018-12-18T05:53:39.077Z,16.30
2018-12-18T05:56:06.282Z,16.30
2018-12-18T05:58:33.504Z,16.20
2018-12-18T06:01:00.714Z,16.20
2018-12-18T06:03:28.751Z,16.30
2018-12-18T06:05:55.973Z,16.30
2018-12-18T06:08:23.205Z,16.30
2018-12-18T06:10:50.432Z,16.30
2018-12-18T06:13:17.645Z,16.30
2018-12-18T06:15:44.875Z,16.30
2018-12-18T06:18:12.089Z,16.30
2018-12-18T06:20:39.312Z,16.30
2018-12-18T06:23:06.529Z,16.20
2018-12-18T06:25:33.750Z,16.20
2018-12-18T06:28:00.975Z,16.20
2018-12-18T06:30:28.181Z,16.30
2018-12-18T06:32:55.413Z,16.20
2018-12-18T06:35:22.629Z,16.20
2018-12-18T06:37:49.870Z,16.20
2018-12-18T06:40:17.108Z,16.20
2018-12-18T06:42:44.374Z,16.20
2018-12-18T06:45:12.377Z,16.30
2018-12-18T06:47:39.597Z,16.20
2018-12-18T06:50:06.810Z,16.30
2018-12-18T06:52:34.941Z,16.20
2018-12-18T06:55:02.198Z,16.30
2018-12-18T06:57:30.370Z,16.30
2018-12-18T06:59:58.386Z,16.10
2018-12-18T07:02:26.578Z,15.60
2018-12-18T07:04:54.904Z,15.30
2018-12-18T07:07:23.085Z,15.20
2018-12-18T07:09:50.343Z,15.50
2018-12-18T07:12:17.553Z,15.80
2018-12-18T10:30:26.268Z,14.50
2018-12-18T10:32:53.973Z,14.50
2018-12-18T10:35:22.091Z,14.80
2018-12-18T10:37:49.500Z,15.10
2018-12-18T10:40:16.719Z,15.20
2018-12-18T10:42:43.933Z,15.30
2018-12-18T10:45:13.879Z,15.30
2018-12-18T10:47:41.199Z,15.40
2018-12-18T10:50:08.404Z,15.40
2018-12-18T10:52:35.623Z,15.40
2018-12-18T10:55:02.868Z,15.40
2018-12-18T10:57:30.085Z,15.30
2018-12-18T10:59:57.327Z,15.40
2018-12-18T11:02:25.464Z,15.60
2018-12-18T11:04:53.288Z,15.90
2018-12-18T11:07:20.535Z,16.10
2018-12-18T11:09:47.749Z,16.20
2018-12-18T11:12:16.908Z,16.30
2018-12-18T11:14:44.256Z,16.40
2018-12-18T11:17:11.544Z,16.40
2018-12-18T11:19:38.741Z,16.50
2018-12-18T11:22:06.874Z,16.50
2018-12-18T11:24:35.014Z,16.50
2018-12-18T11:27:02.218Z,16.50
2018-12-18T11:29:30.217Z,16.50
2018-12-18T11:31:58.335Z,16.50
2018-12-18T11:34:25.532Z,16.60
2018-12-18T11:36:52.756Z,16.60
2018-12-18T11:39:19.977Z,16.60
2018-12-18T11:41:47.193Z,16.60
2018-12-18T11:44:15.344Z,16.50
2018-12-18T11:46:42.568Z,16.60
2018-12-18T11:49:10.571Z,16.60
2018-12-18T11:51:37.781Z,16.60
2018-12-18T11:54:04.986Z,16.60
2018-12-18T11:56:33.128Z,16.60
2018-12-18T11:59:00.342Z,16.60
2018-12-18T12:01:28.363Z,16.60
2018-12-18T12:03:55.616Z,16.60
2018-12-18T12:06:24.143Z,16.60
2018-12-18T12:08:51.356Z,16.60
2018-12-18T12:11:19.521Z,16.60
2018-12-18T12:13:46.755Z,16.60
2018-12-18T12:16:14.028Z,16.60
2018-12-18T12:18:41.263Z,16.60
2018-12-18T12:21:09.419Z,16.60
2018-12-18T12:23:37.597Z,16.60
2018-12-18T12:26:06.811Z,16.60
2018-12-18T12:28:34.488Z,16.60
2018-12-18T12:31:02.661Z,16.60
2018-12-18T12:33:30.887Z,16.60
2018-12-18T12:35:58.148Z,16.60
2018-12-18T12:38:26.331Z,16.60
2018-12-18T12:40:54.075Z,16.60
2018-12-18T12:43:22.105Z,16.60
2018-12-18T12:45:49.335Z,16.70
2018-12-18T12:48:18.526Z,16.60
2018-12-18T12:50:45.723Z,16.70
2018-12-18T12:53:13.051Z,16.70
2018-12-18T12:55:40.263Z,16.70
2018-12-18T12:58:08.175Z,16.70
2018-12-18T13:00:35.385Z,16.60
2018-12-18T13:03:03.606Z,16.70
2018-12-18T13:05:31.620Z,16.70
2018-12-18T13:07:58.833Z,16.70
2018-12-18T13:10:26.083Z,16.70
2018-12-18T13:12:54.597Z,16.70
2018-12-18T13:15:21.847Z,16.70
2018-12-18T13:17:50.056Z,16.80
2018-12-18T13:20:17.285Z,16.80
2018-12-18T13:22:45.423Z,16.70
2018-12-18T13:25:12.637Z,16.70
2018-12-18T13:27:39.843Z,16.80
2018-12-18T13:30:07.137Z,16.80
2018-12-18T13:32:34.366Z,16.80
2018-12-18T13:35:01.615Z,16.70
2018-12-18T13:37:29.649Z,16.80
2018-12-18T13:39:56.894Z,16.80
2018-12-18T13:42:24.851Z,16.80
2018-12-18T13:44:52.109Z,16.70
2018-12-18T13:47:19.310Z,16.80
2018-12-18T13:49:46.589Z,16.70
2018-12-18T13:52:14.726Z,16.80
2018-12-18T13:54:41.988Z,16.70
2018-12-18T13:57:09.201Z,16.80
2018-12-18T13:59:36.412Z,16.80
2018-12-18T14:02:04.567Z,16.80
2018-12-18T14:04:31.775Z,16.80
2018-12-18T14:06:58.995Z,16.80
2018-12-18T14:09:26.257Z,16.80
2018-12-18T14:11:55.487Z,16.80
2018-12-18T14:14:22.741Z,16.80
2018-12-18T14:16:49.951Z,16.80
2018-12-18T14:19:17.195Z,16.50
2018-12-18T14:21:44.386Z,16.10
2018-12-18T14:24:11.650Z,15.80
2018-12-18T14:26:38.869Z,15.70
2018-12-18T14:29:06.066Z,16.00
2018-12-18T14:31:33.280Z,16.20
2018-12-18T14:34:01.466Z,16.40
2018-12-18T14:36:28.677Z,16.50
2018-12-18T14:38:55.893Z,16.60
2018-12-18T14:41:23.103Z,16.60
2018-12-18T14:43:51.248Z,16.70
2018-12-18T14:46:19.382Z,16.70
2018-12-18T14:48:46.627Z,16.70
2018-12-18T14:51:13.842Z,16.70
2018-12-18T14:53:41.083Z,16.70
2018-12-18T14:56:08.337Z,16.80
2018-12-18T14:58:36.459Z,16.70
2018-12-18T15:01:03.710Z,16.80
2018-12-18T15:03:30.939Z,16.80
2018-12-18T15:05:58.172Z,16.70
2018-12-18T15:08:25.400Z,16.80
2018-12-18T15:10:52.624Z,16.80
2018-12-18T15:13:19.856Z,16.80
2018-12-18T15:15:47.114Z,16.80
2018-12-18T15:18:14.386Z,16.80
2018-12-18T15:20:41.614Z,16.80
2018-12-18T15:23:08.843Z,16.80
2018-12-18T15:25:36.218Z,16.90
2018-12-18T15:28:04.386Z,16.90
2018-12-18T15:30:31.645Z,16.80
2018-12-18T15:32:58.858Z,16.90
2018-12-18T15:35:26.601Z,16.90
2018-12-18T15:37:54.815Z,16.90
2018-12-18T15:40:22.827Z,16.90
2018-12-18T15:42:51.021Z,16.90
2018-12-18T15:45:19.063Z,16.80
2018-12-18T15:47:46.319Z,16.80
2018-12-18T15:50:13.619Z,16.80
2018-12-18T15:52:40.901Z,16.80
2018-12-18T15:55:08.159Z,16.70
2018-12-18T15:57:35.374Z,16.70
2018-12-18T16:00:02.635Z,16.90
2018-12-18T16:02:29.863Z,16.90
2018-12-18T16:04:58.061Z,17.00
2018-12-18T16:07:26.241Z,16.80
2018-12-18T16:09:54.292Z,16.80
2018-12-18T16:12:21.557Z,16.40
2018-12-18T16:14:48.760Z,16.00
2018-12-18T16:17:16.011Z,15.70
2018-12-18T16:19:44.060Z,15.90
2018-12-18T16:22:11.290Z,16.20
2018-12-18T16:24:38.501Z,16.40
2018-12-18T16:27:05.771Z,16.50
2018-12-18T16:29:32.988Z,16.70
2018-12-18T16:32:00.198Z,16.80
2018-12-18T16:34:27.491Z,16.80
2018-12-18T16:36:54.717Z,16.90
2018-12-18T16:39:21.940Z,16.90
2018-12-18T16:41:49.155Z,16.90
2018-12-18T16:44:16.391Z,16.90
2018-12-18T16:46:43.610Z,17.00
2018-12-18T16:49:10.828Z,17.00
2018-12-18T16:51:38.226Z,17.00
2018-12-18T16:54:05.529Z,17.00
2018-12-18T16:56:32.737Z,17.00
2018-12-18T16:59:00.040Z,17.00
2018-12-18T17:01:27.281Z,17.00
2018-12-18T17:03:55.250Z,17.00
2018-12-18T17:06:22.464Z,17.00
2018-12-18T17:08:50.694Z,17.00
2018-12-18T17:11:17.908Z,17.00
2018-12-18T17:13:45.145Z,17.00
2018-12-18T17:16:12.359Z,17.00
2018-12-18T17:18:39.581Z,17.00
2018-12-18T17:21:06.794Z,17.00
2018-12-18T17:23:34.009Z,17.00
2018-12-18T17:26:02.022Z,17.00
2018-12-18T17:28:30.172Z,17.00
2018-12-18T17:30:57.385Z,17.00
2018-12-18T17:33:25.420Z,17.00
2018-12-18T17:35:54.181Z,17.00
2018-12-18T17:38:22.173Z,16.90
2018-12-18T17:40:50.438Z,16.90
2018-12-18T17:43:19.749Z,16.90
2018-12-18T17:45:46.966Z,16.90
2018-12-18T17:48:15.108Z,17.00
2018-12-18T17:50:43.326Z,17.00
2018-12-18T17:53:11.482Z,17.00
2018-12-18T17:55:38.693Z,17.00
2018-12-18T17:58:05.916Z,17.00
2018-12-18T18:00:34.103Z,17.00
2018-12-18T18:03:01.339Z,17.00
2018-12-18T18:05:29.340Z,17.00
2018-12-18T18:07:56.559Z,16.90
2018-12-18T18:10:24.050Z,17.00
2018-12-18T18:12:54.630Z,17.00
2018-12-18T18:15:22.232Z,17.00
2018-12-18T18:17:49.475Z,17.00
2018-12-18T18:20:16.704Z,17.00
2018-12-18T18:22:44.940Z,17.10
2018-12-18T18:25:14.009Z,17.10
2018-12-18T18:27:41.239Z,17.20
2018-12-18T18:30:08.463Z,17.10
2018-12-18T18:32:35.747Z,17.20
2018-12-18T18:35:03.339Z,17.20
2018-12-18T18:37:30.562Z,17.20
2018-12-18T18:39:57.778Z,17.20
2018-12-18T18:42:25.945Z,17.20
2018-12-18T18:44:53.158Z,17.10
2018-12-18T18:47:21.326Z,17.10
2018-12-18T18:49:48.562Z,17.10
2018-12-18T18:52:15.775Z,17.10
2018-12-18T18:54:43.006Z,17.10
2018-12-18T18:57:11.184Z,17.10
2018-12-18T18:59:38.440Z,17.10
2018-12-18T19:02:05.654Z,17.10
2018-12-18T19:04:34.796Z,17.10
2018-12-18T19:07:03.073Z,17.10
2018-12-18T19:09:30.307Z,17.10
2018-12-18T19:11:57.529Z,17.10
2018-12-18T19:14:25.185Z,17.10
2018-12-18T19:16:52.403Z,17.10
2018-12-18T19:19:20.502Z,17.10
2018-12-18T19:21:47.739Z,17.10
2018-12-18T19:24:15.029Z,17.10
2018-12-18T19:26:42.827Z,17.00
2018-12-18T19:29:10.152Z,17.10
2018-12-18T19:31:37.365Z,17.10
2018-12-18T19:34:04.636Z,17.10
2018-12-18T19:36:31.954Z,17.10
2018-12-18T19:38:59.209Z,17.10
2018-12-18T19:41:26.449Z,17.00
2018-12-18T19:43:53.825Z,17.00
2018-12-18T19:46:21.820Z,17.00
2018-12-18T19:48:49.080Z,17.00
2018-12-18T19:51:16.389Z,17.00
2018-12-18T19:53:43.619Z,17.00
2018-12-18T19:56:11.638Z,16.90
2018-12-18T19:58:38.891Z,17.00
2018-12-18T20:01:06.110Z,17.00
2018-12-18T20:03:33.338Z,17.00
2018-12-18T20:06:00.563Z,17.00
2018-12-18T20:08:27.821Z,17.00
2018-12-18T20:10:56.112Z,17.00
2018-12-18T20:13:23.352Z,17.00
2018-12-18T20:15:51.398Z,16.90
2018-12-18T20:18:18.623Z,17.00
2018-12-18T20:20:45.905Z,17.00
2018-12-18T20:23:13.190Z,16.90
2018-12-18T20:25:40.408Z,16.90
2018-12-18T20:28:07.671Z,17.00
2018-12-18T20:30:34.905Z,16.90
2018-12-18T20:33:02.151Z,16.90
2018-12-18T20:35:29.363Z,16.90
2018-12-18T20:37:56.666Z,16.90
2018-12-18T20:40:24.478Z,16.90
2018-12-18T20:42:51.707Z,16.90
2018-12-18T20:45:18.934Z,17.00
2018-12-18T20:47:46.156Z,17.00
2018-12-18T20:50:13.377Z,17.00
2018-12-18T20:52:40.598Z,17.00
2018-12-18T20:55:07.820Z,17.00
2018-12-18T20:57:35.057Z,17.00
2018-12-18T21:00:02.601Z,16.90
2018-12-18T21:02:29.928Z,17.00
2018-12-18T21:04:57.259Z,17.00
2018-12-18T21:07:24.997Z,16.90
2018-12-18T21:09:52.209Z,16.90
2018-12-18T21:12:19.436Z,16.90
2018-12-18T21:14:46.644Z,16.90
2018-12-18T21:17:13.895Z,16.80
2018-12-18T21:19:41.167Z,16.80
2018-12-18T21:22:09.390Z,16.80
2018-12-18T21:24:36.612Z,16.80
2018-12-18T21:27:04.671Z,16.70
2018-12-18T21:29:31.904Z,16.80
2018-12-18T21:32:02.040Z,16.70
2018-12-18T21:34:29.263Z,16.70
2018-12-18T21:36:56.582Z,16.70
2018-12-18T21:39:24.548Z,16.60
2018-12-18T21:41:51.746Z,16.70
2018-12-18T21:44:18.973Z,16.60
2018-12-18T21:46:46.191Z,16.60
2018-12-18T21:49:13.404Z,16.60
2018-12-18T21:51:40.615Z,16.50
2018-12-18T21:54:07.804Z,16.50
2018-12-18T21:56:35.037Z,16.50
2018-12-18T21:59:02.255Z,16.50
2018-12-18T22:01:29.469Z,16.50
2018-12-18T22:03:56.699Z,16.50
2018-12-18T22:06:24.880Z,16.50
2018-12-18T22:08:52.098Z,16.50
2018-12-18T22:11:20.123Z,16.50
2018-12-18T22:13:47.349Z,16.50
2018-12-18T22:16:14.561Z,16.40
2018-12-18T22:18:41.783Z,16.40
2018-12-18T22:21:09.942Z,16.40
2018-12-18T22:23:37.987Z,16.40
2018-12-18T22:26:05.200Z,16.40
2018-12-18T22:28:33.211Z,16.40
2018-12-18T22:31:01.349Z,16.40
2018-12-18T22:33:28.578Z,16.40
2018-12-18T22:35:56.584Z,16.40
2018-12-18T22:38:24.123Z,16.40
2018-12-18T22:40:52.142Z,16.40
2018-12-18T22:43:20.296Z,16.40
2018-12-18T22:45:48.459Z,16.40
2018-12-18T22:48:15.736Z,16.40
2018-12-18T22:50:42.956Z,16.40
2018-12-18T22:53:11.106Z,16.50
2018-12-18T22:55:44.691Z,16.50
2018-12-18T22:58:08.545Z,16.60
2018-12-18T23:00:42.406Z,16.60
2018-12-18T23:03:10.590Z,16.60
2018-12-18T23:05:37.805Z,16.50
2018-12-18T23:08:05.046Z,16.50
2018-12-18T23:10:32.280Z,16.50
2018-12-18T23:12:59.533Z,16.50
2018-12-18T23:15:27.672Z,16.40
2018-12-18T23:17:55.706Z,16.40
2018-12-18T23:20:22.921Z,16.40
2018-12-18T23:22:50.184Z,16.40
2018-12-18T23:25:17.496Z,16.40
2018-12-18T23:27:44.797Z,16.40
2018-12-18T23:30:12.096Z,16.40
2018-12-18T23:32:39.354Z,16.40
2018-12-18T23:35:06.569Z,16.30
2018-12-18T23:37:33.795Z,16.30
2018-12-18T23:40:01.975Z,16.30
2018-12-18T23:42:30.117Z,16.30
2018-12-18T23:44:57.375Z,16.30
2018-12-18T23:47:25.148Z,16.30
2018-12-18T23:49:52.368Z,16.30
2018-12-18T23:52:19.581Z,16.30
2018-12-18T23:54:46.854Z,16.30
2018-12-18T23:57:14.071Z,16.30
2018-12-18T23:59:42.119Z,16.30
